| time (UTC) | temp C | wind direction | speed KPH | gust KPH | rain 1hr cm | rain 24hr cm | rain mn cm | humidity % | barometer mb |
| 20260506154516 | 17 | 341 | 0.0 | 4.8 | 0.00 | 0.00 | 0.00 | 76 | 1020.5 |
| 20260506153517 | 17 | 199 | 1.6 | 6.4 | 0.00 | 0.00 | 0.00 | 76 | 1020.5 |
| 20260506152517 | 16 | 196 | 1.6 | 4.8 | 0.00 | 0.00 | 0.00 | 77 | 1020.7 |
| 20260506151518 | 15 | 321 | 0.0 | 3.2 | 0.00 | 0.00 | 0.00 | 79 | 1020.7 |
| 20260506150516 | 15 | 317 | 1.6 | 4.8 | 0.00 | 0.00 | 0.00 | 82 | 1020.7 |
| 20260506145517 | 13 | 1 | 1.6 | 4.8 | 0.00 | 0.00 | 0.00 | 86 | 1020.8 |
| 20260506144518 | 12 | 34 | 1.6 | 4.8 | 0.00 | 0.00 | 0.00 | 91 | 1020.7 |
| 20260506143539 | 11 | 331 | 1.6 | 6.4 | 0.00 | 0.00 | 0.00 | 94 | 1020.6 |
| 20260506142521 | 11 | 41 | 1.6 | 4.8 | 0.00 | 0.00 | 0.00 | 96 | 1020.5 |
| 20260506141518 | 10 | 165 | 0.0 | 1.6 | 0.00 | 0.00 | 0.00 | 97 | 1020.5 |
| 20260506140538 | 8 | 32 | 1.6 | 3.2 | 0.00 | 0.00 | 0.00 | 97 | 1020.4 |
| 20260506135518 | 8 | 102 | 1.6 | 4.8 | 0.00 | 0.00 | 0.00 | 97 | 1020.2 |
| 20260506134518 | 8 | 124 | 1.6 | 4.8 | 0.00 | 0.00 | 0.00 | 96 | 1020.3 |
| 20260506133516 | 7 | 144 | 1.6 | 3.2 | 0.00 | 0.00 | 0.00 | 96 | 1020.3 |
| 20260506132515 | 7 | 177 | 1.6 | 3.2 | 0.00 | 0.00 | 0.00 | 96 | 1020.1 |
| 20260506131515 | 8 | 181 | 1.6 | 3.2 | 0.00 | 0.00 | 0.00 | 96 | 1020.0 |
| 20260506130516 | 8 | 163 | 1.6 | 3.2 | 0.00 | 0.00 | 0.00 | 96 | 1019.8 |
| 20260506125516 | 8 | 165 | 1.6 | 3.2 | 0.00 | 0.00 | 0.00 | 96 | 1019.7 |
| 20260506124516 | 8 | 173 | 1.6 | 4.8 | 0.00 | 0.00 | 0.00 | 96 | 1019.6 |
| 20260506123516 | 8 | 158 | 1.6 | 6.4 | 0.00 | 0.00 | 0.00 | 96 | 1019.6 |
| 20260506122518 | 8 | 167 | 1.6 | 4.8 | 0.00 | 0.00 | 0.00 | 96 | 1019.7 |
| 20260506121517 | 8 | 97 | 0.0 | 3.2 | 0.00 | 0.00 | 0.00 | 96 | 1019.7 |
| 20260506120517 | 8 | 168 | 0.0 | 3.2 | 0.00 | 0.00 | 0.00 | 96 | 1019.8 |
| 20260506115517 | 8 | 116 | 0.0 | 3.2 | 0.00 | 0.00 | 0.00 | 96 | 1019.8 |
| 20260506114519 | 8 | 185 | 1.6 | 4.8 | 0.00 | 0.00 | 0.00 | 96 | 1019.8 |
| 20260506113517 | 8 | 168 | 1.6 | 4.8 | 0.00 | 0.00 | 0.00 | 96 | 1019.9 |
| 20260506112519 | 8 | 168 | 1.6 | 4.8 | 0.00 | 0.00 | 0.00 | 96 | 1019.8 |
| 20260506111517 | 8 | 180 | 1.6 | 3.2 | 0.00 | 0.00 | 0.00 | 96 | 1019.8 |
| 20260506110518 | 8 | 161 | 1.6 | 3.2 | 0.00 | 0.00 | 0.00 | 95 | 1019.8 |
| 20260506105518 | 8 | 182 | 1.6 | 3.2 | 0.00 | 0.00 | 0.00 | 95 | 1019.8 |
| 20260506104515 | 8 | 147 | 0.0 | 3.2 | 0.00 | 0.00 | 0.00 | 95 | 1019.8 |
| 20260506103515 | 8 | 181 | 3.2 | 4.8 | 0.00 | 0.00 | 0.00 | 95 | 1019.7 |
| 20260506102516 | 9 | 185 | 1.6 | 3.2 | 0.00 | 0.00 | 0.00 | 95 | 1019.7 |
| 20260506101515 | 9 | 179 | 1.6 | 4.8 | 0.00 | 0.00 | 0.00 | 95 | 1019.7 |
| 20260506100516 | 9 | 162 | 0.0 | 3.2 | 0.00 | 0.00 | 0.00 | 95 | 1019.7 |
| 20260506095516 | 9 | 160 | 1.6 | 3.2 | 0.00 | 0.00 | 0.00 | 94 | 1019.6 |
| 20260506094516 | 9 | 182 | 0.0 | 3.2 | 0.00 | 0.00 | 0.00 | 94 | 1019.6 |
| 20260506093518 | 10 | 171 | 1.6 | 3.2 | 0.00 | 0.00 | 0.00 | 94 | 1019.7 |
| 20260506092520 | 10 | 212 | 0.0 | 1.6 | 0.00 | 0.00 | 0.00 | 94 | 1019.7 |
| 20260506091518 | 10 | 168 | 3.2 | 4.8 | 0.00 | 0.00 | 0.00 | 94 | 1019.7 |
| 20260506090517 | 10 | 38 | 1.6 | 4.8 | 0.00 | 0.00 | 0.00 | 94 | 1019.8 |
| 20260506085517 | 10 | 121 | 0.0 | 3.2 | 0.00 | 0.00 | 0.00 | 94 | 1019.9 |
| 20260506084539 | 10 | 52 | 1.6 | 3.2 | 0.00 | 0.00 | 0.00 | 94 | 1020.0 |
| 20260506083517 | 10 | 71 | 1.6 | 4.8 | 0.00 | 0.00 | 0.00 | 94 | 1020.0 |
| 20260506082519 | 10 | 35 | 1.6 | 3.2 | 0.00 | 0.00 | 0.00 | 93 | 1020.1 |
| 20260506081518 | 10 | 10 | 1.6 | 4.8 | 0.00 | 0.00 | 0.00 | 93 | 1020.1 |
| 20260506080537 | 10 | 186 | 0.0 | 3.2 | 0.00 | 0.00 | 0.00 | 93 | 1020.0 |
| 20260506073518 | 11 | 182 | 0.0 | 1.6 | 0.00 | 0.00 | 0.00 | 92 | 1019.9 |
| 20260506072516 | 11 | 176 | 0.0 | 3.2 | 0.00 | 0.00 | 0.00 | 91 | 1019.8 |
| 20260506071515 | 12 | 124 | 0.0 | 3.2 | 0.00 | 0.00 | 0.00 | 91 | 1019.8 |
| 20260506070516 | 12 | 140 | 0.0 | 3.2 | 0.00 | 0.00 | 0.00 | 91 | 1019.7 |
| 20260506062516 | 12 | 68 | 1.6 | 4.8 | 0.00 | 0.00 | 0.00 | 89 | 1019.5 |
| 20260506061516 | 12 | 37 | 0.0 | 4.8 | 0.00 | 0.00 | 0.00 | 89 | 1019.5 |
| 20260506060537 | 12 | 118 | 0.0 | 4.8 | 0.00 | 0.00 | 0.00 | 88 | 1019.4 |
| 20260506050518 | 13 | 352 | 3.2 | 8.0 | 0.00 | 0.00 | 0.00 | 87 | 1019.0 |
| 20260506044518 | 13 | 25 | 1.6 | 6.4 | 0.00 | 0.00 | 0.00 | 86 | 1018.9 |
| 20260506043540 | 13 | 354 | 1.6 | 8.0 | 0.00 | 0.00 | 0.00 | 86 | 1018.8 |
| 20260506042517 | 13 | 10 | 1.6 | 6.4 | 0.00 | 0.00 | 0.00 | 85 | 1018.8 |
| 20260506041518 | 13 | 357 | 1.6 | 8.0 | 0.00 | 0.00 | 0.00 | 84 | 1018.6 |
| 20260506040517 | 13 | 343 | 1.6 | 4.8 | 0.00 | 0.00 | 0.00 | 83 | 1018.5 |
| 20260506035516 | 14 | 333 | 3.2 | 8.0 | 0.00 | 0.00 | 0.00 | 82 | 1018.4 |
| 20260506034515 | 14 | 328 | 3.2 | 6.4 | 0.00 | 0.00 | 0.00 | 81 | 1018.2 |
| 20260506033516 | 14 | 327 | 3.2 | 8.0 | 0.00 | 0.00 | 0.00 | 81 | 1018.1 |
| 20260506032517 | 14 | 326 | 3.2 | 8.0 | 0.00 | 0.00 | 0.00 | 80 | 1018.0 |
| 20260506031516 | 15 | 329 | 1.6 | 6.4 | 0.00 | 0.00 | 0.00 | 79 | 1017.8 |
| 20260506030517 | 15 | 325 | 3.2 | 8.0 | 0.00 | 0.00 | 0.00 | 78 | 1017.6 |
| 20260506025517 | 15 | 335 | 3.2 | 12.9 | 0.00 | 0.00 | 0.00 | 77 | 1017.4 |
| 20260506024517 | 15 | 336 | 4.8 | 9.7 | 0.00 | 0.00 | 0.00 | 76 | 1017.3 |
| 20260506023517 | 15 | 334 | 3.2 | 6.4 | 0.00 | 0.00 | 0.00 | 75 | 1017.1 |
| 20260506022518 | 16 | 339 | 6.4 | 14.5 | 0.00 | 0.00 | 0.00 | 73 | 1017.1 |
| 20260506021517 | 16 | 339 | 8.0 | 14.5 | 0.00 | 0.00 | 0.00 | 71 | 1017.0 |
| 20260506020518 | 16 | 347 | 6.4 | 14.5 | 0.00 | 0.00 | 0.00 | 69 | 1016.9 |
| 20260506015518 | 17 | 344 | 6.4 | 12.9 | 0.00 | 0.00 | 0.00 | 67 | 1016.8 |
| 20260506014523 | 17 | 341 | 6.4 | 12.9 | 0.00 | 0.00 | 0.00 | 66 | 1016.7 |
| 20260506013517 | 17 | 335 | 6.4 | 14.5 | 0.00 | 0.00 | 0.00 | 65 | 1016.7 |
| 20260506012517 | 18 | 332 | 8.0 | 17.7 | 0.00 | 0.00 | 0.00 | 64 | 1016.6 |
| 20260506011515 | 18 | 315 | 3.2 | 9.7 | 0.00 | 0.00 | 0.00 | 66 | 1016.7 |
| 20260506010516 | 18 | 269 | 4.8 | 9.7 | 0.00 | 0.00 | 0.00 | 68 | 1016.7 |
| 20260506005517 | 18 | 278 | 4.8 | 11.3 | 0.00 | 0.00 | 0.00 | 68 | 1016.7 |
| 20260506004516 | 19 | 284 | 4.8 | 12.9 | 0.00 | 0.00 | 0.00 | 68 | 1016.7 |
| 20260506003516 | 19 | 287 | 4.8 | 11.3 | 0.00 | 0.00 | 0.00 | 67 | 1016.6 |
| 20260506002516 | 19 | 267 | 4.8 | 11.3 | 0.00 | 0.00 | 0.00 | 68 | 1016.6 |
| 20260506001517 | 19 | 286 | 4.8 | 11.3 | 0.00 | 0.00 | 0.00 | 68 | 1016.6 |
| 20260506000517 | 18 | 265 | 4.8 | 9.7 | 0.00 | 0.00 | 0.00 | 69 | 1016.5 |
| 20260505235517 | 18 | 266 | 6.4 | 14.5 | 0.00 | 0.00 | 0.00 | 70 | 1016.5 |
| 20260505234517 | 19 | 262 | 4.8 | 11.3 | 0.00 | 0.00 | 0.00 | 69 | 1016.5 |
| 20260505233517 | 18 | 260 | 4.8 | 14.5 | 0.00 | 0.00 | 0.00 | 69 | 1016.7 |
| 20260505232538 | 18 | 269 | 6.4 | 12.9 | 0.00 | 0.00 | 0.00 | 71 | 1016.7 |
| 20260505231518 | 18 | 273 | 4.8 | 14.5 | 0.00 | 0.00 | 0.00 | 71 | 1016.6 |
| 20260505230538 | 19 | 280 | 6.4 | 12.9 | 0.00 | 0.00 | 0.00 | 68 | 1016.7 |
| 20260505225518 | 19 | 268 | 4.8 | 11.3 | 0.00 | 0.00 | 0.00 | 67 | 1016.8 |
| 20260505224518 | 18 | 265 | 4.8 | 11.3 | 0.00 | 0.00 | 0.00 | 69 | 1016.9 |
| 20260505223518 | 19 | 291 | 4.8 | 9.7 | 0.00 | 0.00 | 0.00 | 66 | 1017.0 |
| 20260505222537 | 20 | 286 | 4.8 | 12.9 | 0.00 | 0.00 | 0.00 | 67 | 1017.0 |
| 20260505221519 | 20 | 275 | 4.8 | 11.3 | 0.00 | 0.00 | 0.00 | 65 | 1017.1 |
| 20260505220516 | 19 | 285 | 4.8 | 12.9 | 0.00 | 0.00 | 0.00 | 66 | 1017.1 |
| 20260505215516 | 18 | 268 | 4.8 | 9.7 | 0.00 | 0.00 | 0.00 | 67 | 1017.2 |
| 20260505214516 | 18 | 294 | 6.4 | 12.9 | 0.00 | 0.00 | 0.00 | 66 | 1017.4 |
| 20260505213536 | 18 | 278 | 4.8 | 9.7 | 0.00 | 0.00 | 0.00 | 69 | 1017.5 |
| 20260505212557 | 18 | 272 | 4.8 | 11.3 | 0.00 | 0.00 | 0.00 | 69 | 1017.5 |
| 20260505211516 | 18 | 285 | 4.8 | 16.1 | 0.00 | 0.00 | 0.00 | 68 | 1017.5 |
| 20260505210517 | 17 | 261 | 4.8 | 11.3 | 0.00 | 0.00 | 0.00 | 69 | 1017.5 |
| 20260505205517 | 18 | 282 | 6.4 | 11.3 | 0.00 | 0.00 | 0.00 | 67 | 1017.5 |
| 20260505204518 | 18 | 270 | 4.8 | 12.9 | 0.00 | 0.00 | 0.00 | 65 | 1017.5 |
| 20260505203517 | 19 | 278 | 6.4 | 14.5 | 0.00 | 0.00 | 0.00 | 64 | 1017.6 |
| 20260505202518 | 18 | 252 | 4.8 | 11.3 | 0.00 | 0.00 | 0.00 | 67 | 1017.6 |
| 20260505201518 | 17 | 243 | 4.8 | 9.7 | 0.00 | 0.00 | 0.00 | 69 | 1017.6 |
| 20260505200518 | 17 | 248 | 4.8 | 11.3 | 0.00 | 0.00 | 0.00 | 68 | 1017.6 |
| 20260505195518 | 17 | 264 | 6.4 | 14.5 | 0.00 | 0.00 | 0.00 | 68 | 1017.6 |
| 20260505194518 | 18 | 239 | 4.8 | 11.3 | 0.00 | 0.00 | 0.00 | 67 | 1017.6 |
| 20260505193518 | 18 | 276 | 4.8 | 9.7 | 0.00 | 0.00 | 0.00 | 67 | 1017.6 |
| 20260505192516 | 19 | 282 | 4.8 | 9.7 | 0.00 | 0.00 | 0.00 | 65 | 1017.6 |
| 20260505191516 | 19 | 252 | 4.8 | 14.5 | 0.00 | 0.00 | 0.00 | 65 | 1017.7 |
| 20260505190516 | 19 | 262 | 4.8 | 9.7 | 0.00 | 0.00 | 0.00 | 67 | 1017.7 |
| 20260505185516 | 18 | 238 | 4.8 | 12.9 | 0.00 | 0.00 | 0.00 | 68 | 1017.6 |
| 20260505184516 | 18 | 251 | 3.2 | 9.7 | 0.00 | 0.00 | 0.00 | 68 | 1017.7 |
| 20260505183517 | 18 | 275 | 4.8 | 9.7 | 0.00 | 0.00 | 0.00 | 68 | 1017.7 |
| 20260505182517 | 18 | 264 | 3.2 | 11.3 | 0.00 | 0.00 | 0.00 | 69 | 1017.6 |
| 20260505181517 | 18 | 262 | 4.8 | 11.3 | 0.00 | 0.00 | 0.00 | 68 | 1017.6 |
| 20260505180517 | 18 | 259 | 4.8 | 12.9 | 0.00 | 0.00 | 0.00 | 69 | 1017.5 |
| 20260505175517 | 18 | 249 | 3.2 | 12.9 | 0.00 | 0.00 | 0.00 | 68 | 1017.6 |
| 20260505174517 | 18 | 262 | 3.2 | 12.9 | 0.00 | 0.00 | 0.00 | 68 | 1017.5 |
| 20260505173517 | 18 | 246 | 3.2 | 9.7 | 0.00 | 0.00 | 0.00 | 68 | 1017.4 |
| 20260505172519 | 18 | 260 | 3.2 | 9.7 | 0.00 | 0.00 | 0.00 | 68 | 1017.3 |
| 20260505171518 | 18 | 227 | 3.2 | 12.9 | 0.00 | 0.00 | 0.00 | 68 | 1017.3 |
| 20260505170604 | 18 | 248 | 3.2 | 9.7 | 0.00 | 0.00 | 0.00 | 69 | 1017.4 |
| 20260505165518 | 17 | 293 | 3.2 | 8.0 | 0.00 | 0.00 | 0.00 | 69 | 1017.5 |
| 20260505164518 | 17 | 289 | 1.6 | 8.0 | 0.00 | 0.00 | 0.00 | 69 | 1017.4 |
| 20260505163518 | 17 | 251 | 1.6 | 6.4 | 0.00 | 0.00 | 0.00 | 69 | 1017.4 |
| 20260505162517 | 17 | 233 | 3.2 | 6.4 | 0.00 | 0.00 | 0.00 | 69 | 1017.3 |
| 20260505161515 | 17 | 211 | 1.6 | 9.7 | 0.00 | 0.00 | 0.00 | 71 | 1017.3 |
| 20260505160515 | 16 | 360 | 3.2 | 9.7 | 0.00 | 0.00 | 0.00 | 72 | 1017.3 |